createdAt,value
2023-03-19T00:00:29.532Z,80.90
2023-03-19T00:02:56.970Z,81.73
2023-03-19T00:05:24.436Z,81.75
2023-03-19T00:07:51.693Z,82.56
2023-03-19T00:10:19.036Z,82.69
2023-03-19T00:12:46.465Z,82.79
2023-03-19T00:15:15.362Z,83.25
2023-03-19T00:17:43.204Z,83.20
2023-03-19T00:20:12.395Z,83.36
2023-03-19T00:22:40.137Z,83.80
2023-03-19T00:25:09.981Z,83.75
2023-03-19T00:27:38.321Z,84.30
2023-03-19T00:30:07.292Z,83.96
2023-03-19T00:32:35.749Z,83.97
2023-03-19T00:35:06.304Z,83.74
2023-03-19T00:37:34.444Z,84.82
2023-03-19T00:40:02.060Z,86.35
2023-03-19T00:42:30.207Z,85.53
2023-03-19T00:44:57.563Z,85.83
2023-03-19T00:47:26.011Z,84.58
2023-03-19T00:49:53.286Z,85.03
2023-03-19T00:52:20.856Z,85.74
2023-03-19T00:54:48.175Z,86.25
2023-03-19T00:57:15.631Z,86.27
2023-03-19T00:59:42.964Z,86.12
2023-03-19T01:02:10.807Z,85.24
2023-03-19T01:04:38.256Z,85.84
2023-03-19T01:07:06.672Z,87.14
2023-03-19T01:09:35.953Z,86.40
2023-03-19T01:12:04.841Z,86.06
2023-03-19T01:14:33.513Z,86.04
2023-03-19T01:17:01.400Z,86.00
2023-03-19T01:19:30.095Z,85.63
2023-03-19T01:21:57.890Z,85.16
2023-03-19T01:24:29.025Z,83.73
2023-03-19T01:26:56.354Z,83.17
2023-03-19T01:29:31.009Z,83.20
2023-03-19T01:32:02.185Z,82.92
2023-03-19T01:35:01.825Z,83.60
2023-03-19T01:37:29.233Z,83.53
2023-03-19T01:39:56.782Z,83.78
2023-03-19T01:42:24.169Z,84.17
2023-03-19T01:45:31.600Z,84.50
2023-03-19T01:48:25.519Z,84.74
2023-03-19T01:51:02.672Z,84.34
2023-03-19T01:54:10.477Z,84.32
2023-03-19T01:57:11.420Z,83.52
2023-03-19T01:59:57.684Z,83.21
2023-03-19T02:02:31.345Z,84.08
2023-03-19T02:05:09.455Z,83.70
2023-03-19T02:07:39.623Z,85.13
2023-03-19T02:10:10.323Z,84.94
2023-03-19T02:12:38.577Z,84.57
2023-03-19T02:15:07.285Z,85.07
2023-03-19T02:17:34.789Z,84.89
2023-03-19T02:20:06.835Z,84.51
2023-03-19T02:22:38.900Z,85.16
2023-03-19T02:25:21.764Z,85.48
2023-03-19T02:27:48.960Z,84.67
2023-03-19T02:30:33.715Z,84.22
2023-03-19T02:33:06.303Z,83.96
2023-03-19T02:35:36.189Z,84.11
2023-03-19T02:38:05.270Z,83.90
2023-03-19T02:40:38.481Z,83.61
2023-03-19T02:43:06.320Z,83.41
2023-03-19T02:45:33.700Z,83.15
2023-03-19T02:48:01.148Z,83.97
2023-03-19T02:50:28.597Z,84.69
2023-03-19T02:52:56.391Z,83.91
2023-03-19T02:55:23.666Z,83.42
2023-03-19T02:57:51.106Z,84.45
2023-03-19T03:00:20.897Z,84.93
2023-03-19T03:02:48.365Z,84.64
2023-03-19T03:05:15.651Z,85.17
2023-03-19T03:07:46.103Z,85.55
2023-03-19T03:10:13.793Z,85.18
2023-03-19T03:12:41.545Z,85.63
2023-03-19T03:15:09.654Z,85.03
2023-03-19T03:17:38.762Z,84.69
2023-03-19T03:20:07.853Z,84.58
2023-03-19T03:22:35.781Z,84.19
2023-03-19T03:25:03.223Z,85.19
2023-03-19T03:27:31.457Z,84.85
2023-03-19T03:29:59.008Z,85.02
2023-03-19T03:32:27.512Z,85.41
2023-03-19T03:34:54.893Z,84.82
2023-03-19T03:37:22.740Z,84.47
2023-03-19T03:39:50.041Z,85.21
2023-03-19T03:42:19.212Z,84.87
2023-03-19T03:44:46.804Z,86.38
2023-03-19T03:47:14.684Z,86.66
2023-03-19T03:49:42.042Z,86.83
2023-03-19T03:52:09.854Z,86.78
2023-03-19T03:54:37.195Z,86.43
2023-03-19T03:57:04.767Z,86.93
2023-03-19T03:59:32.532Z,87.28
2023-03-19T04:01:59.970Z,88.11
2023-03-19T04:04:27.702Z,86.96
2023-03-19T04:06:55.041Z,87.02
2023-03-19T04:09:33.171Z,89.49
2023-03-19T04:12:01.067Z,91.20
2023-03-19T04:14:28.389Z,90.91
2023-03-19T04:16:56.966Z,91.51
2023-03-19T04:19:24.728Z,94.35
2023-03-19T04:21:52.128Z,94.43
2023-03-19T04:24:20.030Z,92.39
2023-03-19T04:26:48.563Z,90.99
2023-03-19T04:29:16.755Z,92.54
2023-03-19T04:31:45.419Z,92.04
2023-03-19T04:34:13.063Z,92.84
2023-03-19T04:36:40.655Z,93.29
2023-03-19T04:39:08.136Z,94.87
2023-03-19T04:41:35.877Z,94.39
2023-03-19T04:44:24.301Z,93.83
2023-03-19T04:46:51.703Z,95.40
2023-03-19T04:49:21.087Z,96.12
2023-03-19T04:51:50.836Z,95.29
2023-03-19T04:54:18.683Z,94.98
2023-03-19T04:56:46.054Z,95.24
2023-03-19T04:59:13.540Z,95.09
2023-03-19T05:01:41.961Z,94.59
2023-03-19T05:04:12.324Z,94.60
2023-03-19T05:06:39.762Z,93.91
2023-03-19T05:09:07.715Z,93.15
2023-03-19T05:11:35.565Z,93.60
2023-03-19T05:14:05.838Z,93.76
2023-03-19T05:16:48.750Z,94.13
2023-03-19T05:19:16.558Z,93.58
2023-03-19T05:21:44.270Z,93.80
2023-03-19T05:24:12.363Z,93.68
2023-03-19T05:26:40.053Z,93.21
2023-03-19T05:29:26.680Z,92.99
2023-03-19T05:32:26.066Z,94.04
2023-03-19T05:34:54.442Z,94.19
2023-03-19T05:37:22.016Z,94.44
2023-03-19T05:39:55.993Z,94.50
2023-03-19T05:42:23.845Z,94.26
2023-03-19T05:44:51.284Z,94.57
2023-03-19T05:47:23.766Z,94.72
2023-03-19T05:49:54.687Z,93.73
2023-03-19T05:52:22.254Z,93.46
2023-03-19T05:54:50.776Z,93.84
2023-03-19T05:57:44.657Z,93.56
2023-03-19T06:00:21.233Z,93.84
2023-03-19T06:02:48.699Z,93.44
2023-03-19T06:05:41.644Z,93.48
2023-03-19T06:08:19.621Z,93.14
2023-03-19T06:11:01.368Z,93.06
2023-03-19T06:13:29.156Z,92.27
2023-03-19T06:15:59.279Z,91.50
2023-03-19T06:18:36.630Z,91.16
2023-03-19T06:21:09.495Z,91.40
2023-03-19T06:23:37.517Z,89.20
2023-03-19T06:26:06.977Z,89.42
2023-03-19T06:28:42.917Z,90.32
2023-03-19T06:31:10.358Z,90.44
2023-03-19T06:33:57.145Z,89.50
2023-03-19T06:36:30.341Z,89.26
2023-03-19T06:38:57.853Z,89.07
2023-03-19T06:41:25.198Z,88.40
2023-03-19T06:43:54.462Z,88.43
2023-03-19T06:46:22.440Z,87.80
2023-03-19T06:48:49.871Z,87.30
2023-03-19T06:51:17.359Z,86.28
2023-03-19T06:53:44.695Z,85.95
2023-03-19T06:56:12.464Z,87.00
2023-03-19T06:58:39.809Z,86.60
2023-03-19T07:01:07.611Z,85.82
2023-03-19T07:03:34.938Z,85.15
2023-03-19T07:06:02.719Z,85.60
2023-03-19T07:08:30.241Z,84.70
2023-03-19T07:10:57.593Z,84.07
2023-03-19T07:13:24.876Z,83.14
2023-03-19T07:15:52.237Z,82.36
2023-03-19T07:18:19.480Z,79.83
2023-03-19T07:20:46.835Z,77.61
2023-03-19T07:23:14.193Z,78.48
2023-03-19T07:25:41.649Z,79.30
2023-03-19T07:28:08.956Z,79.34
2023-03-19T07:30:38.200Z,79.85
2023-03-19T07:33:07.405Z,81.22
2023-03-19T07:35:34.999Z,82.20
2023-03-19T07:38:02.832Z,83.50
2023-03-19T07:40:30.515Z,81.65
2023-03-19T07:42:57.860Z,81.70
2023-03-19T07:45:25.516Z,80.95
2023-03-19T07:47:52.945Z,80.94
2023-03-19T07:50:20.443Z,80.74
2023-03-19T07:52:49.134Z,76.83
2023-03-19T07:55:16.616Z,75.82
2023-03-19T07:57:43.934Z,74.78
2023-03-19T08:00:12.069Z,75.78
2023-03-19T08:02:45.536Z,75.54
2023-03-19T08:05:13.252Z,76.98
2023-03-19T08:07:41.188Z,75.58
2023-03-19T08:10:09.295Z,76.17
2023-03-19T08:12:41.029Z,75.11
2023-03-19T08:15:11.079Z,72.66
2023-03-19T08:17:38.950Z,75.30
2023-03-19T08:20:09.578Z,79.65
2023-03-19T08:22:38.516Z,78.46
2023-03-19T08:25:07.218Z,77.11
2023-03-19T08:27:36.096Z,74.47
2023-03-19T08:30:08.798Z,76.39
2023-03-19T08:32:37.129Z,74.89
2023-03-19T08:35:06.234Z,77.57
2023-03-19T08:37:33.886Z,76.60
2023-03-19T08:40:01.334Z,74.87
2023-03-19T08:42:29.162Z,73.49
2023-03-19T08:44:56.579Z,74.30
2023-03-19T08:47:24.542Z,76.56
2023-03-19T08:49:52.416Z,75.25
2023-03-19T08:52:20.566Z,75.16
2023-03-19T08:54:47.960Z,76.60
2023-03-19T08:57:15.603Z,76.55
2023-03-19T08:59:43.171Z,76.74
2023-03-19T09:02:12.402Z,77.39
2023-03-19T09:04:44.116Z,77.00
2023-03-19T09:07:15.579Z,77.29
2023-03-19T09:09:44.255Z,75.35
2023-03-19T09:12:14.344Z,74.64
2023-03-19T09:14:41.806Z,75.86
2023-03-19T09:17:09.728Z,75.28
2023-03-19T09:19:37.544Z,72.11
2023-03-19T09:22:05.379Z,71.33
2023-03-19T09:24:32.743Z,71.05
2023-03-19T09:27:00.049Z,70.59
2023-03-19T09:29:27.453Z,70.53
2023-03-19T09:31:54.729Z,70.32
2023-03-19T09:34:22.263Z,72.76
2023-03-19T09:36:49.650Z,73.77
2023-03-19T09:39:16.979Z,71.61
2023-03-19T09:41:53.411Z,74.51
2023-03-19T09:44:43.304Z,76.29
2023-03-19T09:47:23.954Z,77.05
2023-03-19T09:49:53.407Z,73.46
2023-03-19T09:52:29.068Z,73.40
2023-03-19T09:55:00.854Z,70.59
2023-03-19T09:57:29.915Z,74.69
2023-03-19T09:59:57.315Z,78.28
2023-03-19T10:02:43.009Z,79.04
2023-03-19T10:05:25.852Z,73.61
2023-03-19T10:08:02.678Z,74.18
2023-03-19T10:10:33.016Z,75.25
2023-03-19T10:13:19.935Z,71.47
2023-03-19T10:15:50.693Z,68.69
2023-03-19T10:18:21.889Z,68.76
2023-03-19T10:21:21.995Z,63.92
2023-03-19T10:24:03.478Z,61.68
2023-03-19T10:26:35.527Z,58.01
2023-03-19T10:29:08.282Z,55.40
2023-03-19T10:31:53.044Z,54.79
2023-03-19T10:34:35.165Z,48.88
2023-03-19T10:37:13.164Z,47.88
2023-03-19T10:39:43.487Z,46.79
2023-03-19T10:42:16.612Z,49.01
2023-03-19T10:44:59.203Z,49.92
2023-03-19T10:47:26.677Z,47.67
2023-03-19T10:49:56.692Z,46.27
2023-03-19T10:52:30.788Z,45.65
2023-03-19T10:55:25.740Z,44.36
2023-03-19T10:58:03.266Z,45.14
2023-03-19T11:00:33.370Z,45.04
2023-03-19T11:03:04.781Z,42.93
2023-03-19T11:05:34.961Z,43.75
2023-03-19T11:08:05.933Z,43.50
2023-03-19T11:10:36.066Z,41.90
2023-03-19T11:13:05.159Z,44.22
2023-03-19T11:15:38.104Z,43.77
2023-03-19T11:18:22.949Z,46.78
2023-03-19T11:20:58.198Z,45.70
2023-03-19T11:23:31.625Z,43.85
2023-03-19T11:26:02.022Z,42.97
2023-03-19T11:28:33.708Z,41.86
2023-03-19T11:31:27.132Z,42.57
2023-03-19T11:34:00.869Z,41.55
2023-03-19T11:36:31.078Z,40.58
2023-03-19T11:39:04.743Z,40.76
2023-03-19T11:41:57.650Z,42.71
2023-03-19T11:44:49.780Z,41.62
2023-03-19T11:48:02.504Z,43.68
2023-03-19T11:50:50.397Z,39.50
2023-03-19T11:53:46.888Z,39.96
2023-03-19T11:56:35.770Z,41.38
2023-03-19T11:59:19.760Z,41.49
2023-03-19T12:02:18.047Z,41.81
2023-03-19T12:05:06.678Z,42.28
2023-03-19T12:07:49.640Z,40.39
2023-03-19T12:10:23.561Z,40.42
2023-03-19T12:13:23.130Z,42.84
2023-03-19T12:16:10.579Z,42.70
2023-03-19T12:19:12.405Z,45.17
2023-03-19T12:21:54.921Z,49.22
2023-03-19T12:24:31.162Z,48.36
2023-03-19T12:27:06.164Z,49.03
2023-03-19T12:29:45.413Z,50.54
2023-03-19T12:32:23.730Z,48.42
2023-03-19T12:34:55.323Z,50.03
2023-03-19T12:37:27.638Z,49.46
2023-03-19T12:40:04.741Z,48.93
2023-03-19T12:42:37.592Z,48.31
2023-03-19T12:45:31.009Z,49.32
2023-03-19T12:48:10.885Z,50.20
2023-03-19T12:50:42.550Z,50.28
2023-03-19T12:53:23.128Z,50.93
2023-03-19T12:55:56.913Z,50.69
2023-03-19T12:58:51.741Z,50.00
2023-03-19T13:01:26.323Z,49.95
2023-03-19T13:04:11.083Z,48.05
2023-03-19T13:06:49.738Z,47.75
2023-03-19T13:09:32.089Z,46.93
2023-03-19T13:12:10.673Z,48.13
2023-03-19T13:14:53.250Z,48.42
2023-03-19T13:17:34.389Z,48.51
2023-03-19T13:20:14.169Z,48.02
2023-03-19T13:22:45.041Z,47.42
2023-03-19T13:25:18.011Z,45.51
2023-03-19T13:27:54.276Z,45.59
2023-03-19T13:30:23.001Z,45.61
2023-03-19T13:32:54.639Z,46.14
2023-03-19T13:35:36.376Z,47.03
2023-03-19T13:38:17.672Z,47.10
2023-03-19T13:40:56.678Z,47.26
2023-03-19T13:43:30.169Z,44.56
2023-03-19T13:46:12.124Z,43.80
2023-03-19T13:48:45.272Z,47.64
2023-03-19T13:51:12.487Z,47.96
2023-03-19T13:54:11.743Z,46.49
2023-03-19T13:57:08.738Z,42.71
2023-03-19T13:59:43.677Z,42.85
2023-03-19T14:02:24.056Z,42.16
2023-03-19T14:05:04.152Z,45.76
2023-03-19T14:07:42.601Z,47.07
2023-03-19T14:10:21.463Z,47.99
2023-03-19T14:12:49.954Z,49.22
2023-03-19T14:15:23.443Z,47.77
2023-03-19T14:17:51.038Z,48.46
2023-03-19T14:20:24.016Z,48.50
2023-03-19T14:22:56.397Z,48.38
2023-03-19T14:25:47.973Z,49.63
2023-03-19T14:28:18.510Z,52.01
2023-03-19T14:30:50.107Z,51.50
2023-03-19T14:33:28.347Z,52.49
2023-03-19T14:35:57.140Z,52.85
2023-03-19T14:39:03.003Z,49.08
2023-03-19T14:41:35.186Z,49.31
2023-03-19T14:44:08.488Z,49.00
2023-03-19T14:46:47.817Z,50.93
2023-03-19T14:49:37.014Z,51.91
2023-03-19T14:52:17.872Z,53.71
2023-03-19T14:54:52.372Z,53.87
2023-03-19T14:57:25.896Z,53.53
2023-03-19T14:59:54.796Z,54.59
2023-03-19T15:02:43.631Z,54.16
2023-03-19T15:05:26.262Z,54.26
2023-03-19T15:07:57.756Z,55.08
2023-03-19T15:10:29.048Z,55.75
2023-03-19T15:13:27.943Z,55.29
2023-03-19T15:16:04.224Z,55.05
2023-03-19T15:18:31.872Z,55.93
2023-03-19T15:20:59.393Z,56.52
2023-03-19T15:23:28.673Z,57.01
2023-03-19T15:26:04.476Z,57.68
2023-03-19T15:28:37.584Z,56.89
2023-03-19T15:31:26.781Z,58.87
2023-03-19T15:33:53.968Z,57.68
2023-03-19T15:36:33.727Z,58.38
2023-03-19T15:39:04.900Z,58.34
2023-03-19T15:41:35.903Z,59.10
2023-03-19T15:44:08.312Z,58.92
2023-03-19T15:46:38.176Z,60.33
2023-03-19T15:49:23.929Z,60.12
2023-03-19T15:51:55.102Z,59.48
2023-03-19T15:54:22.914Z,59.99
2023-03-19T15:56:52.248Z,61.29
2023-03-19T15:59:25.122Z,59.49
2023-03-19T16:01:56.659Z,58.65
2023-03-19T16:04:27.511Z,59.61
2023-03-19T16:06:56.650Z,58.23
2023-03-19T16:09:25.296Z,59.30
2023-03-19T16:11:54.483Z,57.85
2023-03-19T16:14:31.169Z,59.01
2023-03-19T16:17:03.918Z,59.12
2023-03-19T16:19:39.820Z,60.86
2023-03-19T16:22:16.939Z,61.84
2023-03-19T16:24:46.748Z,62.49
2023-03-19T16:27:20.002Z,62.84
2023-03-19T16:29:49.455Z,62.50
2023-03-19T16:32:37.209Z,63.18
2023-03-19T16:35:12.411Z,63.14
2023-03-19T16:37:53.050Z,62.81
2023-03-19T16:40:20.791Z,63.99
2023-03-19T16:42:49.574Z,63.72
2023-03-19T16:45:16.908Z,64.33
2023-03-19T16:47:52.613Z,65.21
2023-03-19T16:50:22.789Z,64.65
2023-03-19T16:52:50.663Z,65.07
2023-03-19T16:55:32.628Z,64.88
2023-03-19T16:58:03.121Z,65.12
2023-03-19T17:00:32.721Z,66.35
2023-03-19T17:03:00.697Z,65.43
2023-03-19T17:05:29.546Z,65.68
2023-03-19T17:07:57.088Z,64.96
2023-03-19T17:10:27.649Z,64.34
2023-03-19T17:12:56.408Z,64.80
2023-03-19T17:15:35.419Z,64.63
2023-03-19T17:18:08.183Z,64.47
2023-03-19T17:20:38.117Z,65.33
2023-03-19T17:23:11.545Z,66.15
2023-03-19T17:25:39.298Z,66.50
2023-03-19T17:28:06.817Z,68.03
2023-03-19T17:30:34.524Z,67.06
2023-03-19T17:33:02.154Z,67.27
2023-03-19T17:35:48.227Z,68.24
2023-03-19T17:38:18.155Z,70.40
2023-03-19T17:40:46.413Z,70.62
2023-03-19T17:43:14.184Z,70.67
2023-03-19T17:45:46.129Z,70.64
2023-03-19T17:48:19.111Z,71.50
2023-03-19T17:50:46.521Z,72.56
2023-03-19T17:53:14.598Z,73.03
2023-03-19T17:55:41.993Z,74.29
2023-03-19T17:58:21.075Z,76.09
2023-03-19T18:00:50.567Z,76.70
2023-03-19T18:03:21.134Z,78.66
2023-03-19T18:05:50.631Z,80.76
2023-03-19T18:08:21.082Z,81.37
2023-03-19T18:10:48.401Z,80.00
2023-03-19T18:13:16.155Z,77.39
2023-03-19T18:15:45.272Z,75.96
2023-03-19T18:18:19.627Z,75.66
2023-03-19T18:20:48.265Z,74.98
2023-03-19T18:23:16.225Z,75.92
2023-03-19T18:25:44.982Z,75.48
2023-03-19T18:28:12.432Z,77.50
2023-03-19T18:30:41.403Z,80.07
2023-03-19T18:33:16.792Z,78.80
2023-03-19T18:35:45.715Z,79.25
2023-03-19T18:38:16.770Z,78.83
2023-03-19T18:40:44.374Z,78.92
2023-03-19T18:43:13.526Z,81.10
2023-03-19T18:45:45.425Z,79.93
2023-03-19T18:48:25.735Z,82.14
2023-03-19T18:50:54.805Z,83.85
2023-03-19T18:53:22.770Z,83.38
2023-03-19T18:55:50.984Z,84.79
2023-03-19T18:58:28.411Z,87.11
2023-03-19T19:00:55.947Z,87.12
2023-03-19T19:03:29.440Z,88.23
2023-03-19T19:05:56.895Z,89.84
2023-03-19T19:08:26.700Z,90.98
2023-03-19T19:10:56.660Z,92.02
2023-03-19T19:13:29.503Z,91.76
2023-03-19T19:15:56.898Z,92.11
2023-03-19T19:18:27.311Z,92.55
2023-03-19T19:20:54.781Z,92.00
2023-03-19T19:23:22.546Z,94.22
2023-03-19T19:25:55.245Z,93.77
2023-03-19T19:28:36.703Z,93.51
2023-03-19T19:31:05.364Z,96.95
2023-03-19T19:33:35.530Z,95.73
2023-03-19T19:36:04.433Z,97.03
2023-03-19T19:38:31.895Z,95.65
2023-03-19T19:41:00.365Z,93.93
2023-03-19T19:43:31.350Z,94.60
2023-03-19T19:45:59.003Z,95.86
2023-03-19T19:48:29.163Z,95.44
2023-03-19T19:50:57.111Z,97.11
2023-03-19T19:53:26.291Z,96.33
2023-03-19T19:55:53.818Z,94.80
2023-03-19T19:58:23.591Z,93.83
2023-03-19T20:01:02.877Z,93.57
2023-03-19T20:03:32.643Z,94.93
2023-03-19T20:06:01.504Z,96.01
2023-03-19T20:08:29.192Z,97.28
2023-03-19T20:10:57.223Z,97.91
2023-03-19T20:13:37.857Z,97.78
2023-03-19T20:16:05.753Z,98.46
2023-03-19T20:18:35.769Z,97.67
2023-03-19T20:21:04.302Z,97.07
2023-03-19T20:23:31.993Z,96.59
2023-03-19T20:25:59.771Z,96.44
2023-03-19T20:28:32.809Z,96.61
2023-03-19T20:31:02.731Z,97.64
2023-03-19T20:33:31.457Z,97.05
2023-03-19T20:35:58.940Z,97.84
2023-03-19T20:38:27.450Z,97.32
2023-03-19T20:40:58.914Z,97.12
2023-03-19T20:43:35.719Z,98.30
2023-03-19T20:46:06.410Z,98.41
2023-03-19T20:48:34.845Z,98.94
2023-03-19T20:51:03.090Z,99.34
2023-03-19T20:53:30.981Z,99.49
2023-03-19T20:56:00.121Z,99.68
2023-03-19T20:58:31.365Z,99.38
2023-03-19T21:01:00.377Z,99.06
2023-03-19T21:03:31.298Z,100.00
2023-03-19T21:06:05.377Z,100.00
2023-03-19T21:08:39.443Z,100.00
2023-03-19T21:11:11.512Z,99.98
2023-03-19T21:13:38.937Z,100.00
2023-03-19T21:16:07.090Z,100.00
2023-03-19T21:18:34.550Z,100.00
2023-03-19T21:21:02.200Z,100.00
2023-03-19T21:23:37.413Z,100.00
2023-03-19T21:26:14.081Z,100.00
2023-03-19T21:28:42.088Z,100.00
2023-03-19T21:31:24.085Z,100.00
2023-03-19T21:33:56.439Z,100.00
2023-03-19T21:36:25.644Z,100.00
2023-03-19T21:38:53.178Z,100.00
2023-03-19T21:41:24.946Z,100.00
2023-03-19T21:43:57.755Z,100.00
2023-03-19T21:46:27.596Z,100.00
2023-03-19T21:48:56.060Z,100.00
2023-03-19T21:51:25.247Z,100.00
2023-03-19T21:53:52.715Z,100.00
2023-03-19T21:56:32.632Z,100.00
2023-03-19T21:59:02.313Z,100.00
2023-03-19T22:01:29.894Z,100.00
2023-03-19T22:03:58.107Z,100.00
2023-03-19T22:06:25.805Z,100.00
2023-03-19T22:08:54.142Z,100.00
2023-03-19T22:11:28.032Z,100.00
2023-03-19T22:14:17.900Z,100.00
2023-03-19T22:16:46.551Z,100.00
2023-03-19T22:19:15.918Z,100.00
2023-03-19T22:21:43.566Z,100.00
2023-03-19T22:24:11.191Z,100.00
2023-03-19T22:26:40.889Z,100.00
2023-03-19T22:29:16.573Z,100.00
2023-03-19T22:31:44.565Z,100.00
2023-03-19T22:34:16.991Z,100.00
2023-03-19T22:36:44.448Z,100.00
2023-03-19T22:39:12.565Z,100.00
2023-03-19T22:41:45.884Z,100.00
2023-03-19T22:44:25.972Z,100.00
2023-03-19T22:46:54.840Z,100.00
2023-03-19T22:49:22.428Z,100.00
2023-03-19T22:51:49.701Z,100.00
2023-03-19T22:54:17.186Z,100.00
2023-03-19T22:56:44.542Z,100.00
2023-03-19T22:59:13.741Z,100.00
2023-03-19T23:01:44.369Z,100.00
2023-03-19T23:04:38.712Z,100.00
2023-03-19T23:07:06.250Z,100.00
2023-03-19T23:09:37.962Z,100.00
2023-03-19T23:12:07.335Z,100.00
2023-03-19T23:14:36.660Z,100.00
2023-03-19T23:17:14.591Z,100.00
2023-03-19T23:19:42.177Z,100.00
2023-03-19T23:22:16.149Z,100.00
2023-03-19T23:24:44.733Z,100.00
2023-03-19T23:27:23.090Z,100.00
2023-03-19T23:29:51.197Z,100.00
2023-03-19T23:32:18.552Z,100.00
2023-03-19T23:34:59.180Z,100.00
2023-03-19T23:37:28.986Z,100.00
2023-03-19T23:39:57.781Z,100.00
2023-03-19T23:42:28.962Z,100.00
2023-03-19T23:44:59.344Z,100.00
2023-03-19T23:47:29.305Z,100.00
2023-03-19T23:49:57.193Z,100.00
2023-03-19T23:52:24.524Z,100.00
2023-03-19T23:54:52.547Z,100.00
2023-03-19T23:57:21.993Z,100.00
2023-03-19T23:59:52.053Z,100.00
